sensor_id;sensor_type;location;lat;lon;timestamp;P1;durP1;ratioP1;P2;durP2;ratioP2
47483;SDS011;54076;50.322;18.650;2022-10-16T00:00:02;14.20;;;6.80;;
47483;SDS011;54076;50.322;18.650;2022-10-16T00:05:04;13.10;;;6.90;;
47483;SDS011;54076;50.322;18.650;2022-10-16T00:10:05;18.40;;;6.90;;
47483;SDS011;54076;50.322;18.650;2022-10-16T00:15:07;14.60;;;7.60;;
47483;SDS011;54076;50.322;18.650;2022-10-16T00:20:08;16.40;;;6.90;;
47483;SDS011;54076;50.322;18.650;2022-10-16T00:25:09;12.90;;;6.90;;
47483;SDS011;54076;50.322;18.650;2022-10-16T00:30:10;16.20;;;7.50;;
47483;SDS011;54076;50.322;18.650;2022-10-16T00:35:12;17.20;;;6.90;;
47483;SDS011;54076;50.322;18.650;2022-10-16T00:40:12;12.70;;;7.10;;
47483;SDS011;54076;50.322;18.650;2022-10-16T00:45:14;13.00;;;7.50;;
47483;SDS011;54076;50.322;18.650;2022-10-16T00:50:28;12.60;;;7.40;;
47483;SDS011;54076;50.322;18.650;2022-10-16T00:55:32;13.70;;;7.20;;
47483;SDS011;54076;50.322;18.650;2022-10-16T01:00:32;12.90;;;6.90;;
47483;SDS011;54076;50.322;18.650;2022-10-16T01:05:39;14.60;;;7.60;;
47483;SDS011;54076;50.322;18.650;2022-10-16T01:10:52;14.00;;;7.70;;
47483;SDS011;54076;50.322;18.650;2022-10-16T01:16:13;16.10;;;7.90;;
47483;SDS011;54076;50.322;18.650;2022-10-16T01:21:26;18.50;;;8.70;;
47483;SDS011;54076;50.322;18.650;2022-10-16T01:31:35;15.70;;;7.90;;
47483;SDS011;54076;50.322;18.650;2022-10-16T01:36:43;19.20;;;7.70;;
47483;SDS011;54076;50.322;18.650;2022-10-16T01:41:51;15.00;;;7.60;;
47483;SDS011;54076;50.322;18.650;2022-10-16T01:46:58;18.50;;;7.60;;
47483;SDS011;54076;50.322;18.650;2022-10-16T01:52:04;15.20;;;7.30;;
47483;SDS011;54076;50.322;18.650;2022-10-16T01:57:08;13.70;;;7.90;;
47483;SDS011;54076;50.322;18.650;2022-10-16T02:02:11;17.60;;;8.60;;
47483;SDS011;54076;50.322;18.650;2022-10-16T02:07:14;18.10;;;9.00;;
47483;SDS011;54076;50.322;18.650;2022-10-16T02:12:31;15.60;;;8.10;;
47483;SDS011;54076;50.322;18.650;2022-10-16T02:17:34;14.30;;;8.10;;
47483;SDS011;54076;50.322;18.650;2022-10-16T02:22:43;16.50;;;8.00;;
47483;SDS011;54076;50.322;18.650;2022-10-16T02:33:13;17.90;;;8.30;;
47483;SDS011;54076;50.322;18.650;2022-10-16T02:38:16;12.40;;;7.20;;
47483;SDS011;54076;50.322;18.650;2022-10-16T02:43:19;17.10;;;7.80;;
47483;SDS011;54076;50.322;18.650;2022-10-16T02:48:20;13.50;;;7.30;;
47483;SDS011;54076;50.322;18.650;2022-10-16T02:53:20;13.30;;;7.50;;
47483;SDS011;54076;50.322;18.650;2022-10-16T02:58:21;18.90;;;7.70;;
47483;SDS011;54076;50.322;18.650;2022-10-16T03:03:22;14.60;;;7.20;;
47483;SDS011;54076;50.322;18.650;2022-10-16T03:08:23;16.60;;;7.90;;
47483;SDS011;54076;50.322;18.650;2022-10-16T03:13:25;15.80;;;7.60;;
47483;SDS011;54076;50.322;18.650;2022-10-16T03:18:26;14.30;;;7.10;;
47483;SDS011;54076;50.322;18.650;2022-10-16T03:23:27;16.60;;;7.60;;
47483;SDS011;54076;50.322;18.650;2022-10-16T03:28:28;13.50;;;7.00;;
47483;SDS011;54076;50.322;18.650;2022-10-16T03:33:29;16.50;;;6.80;;
47483;SDS011;54076;50.322;18.650;2022-10-16T03:38:30;15.10;;;7.70;;
47483;SDS011;54076;50.322;18.650;2022-10-16T03:43:31;17.00;;;7.20;;
47483;SDS011;54076;50.322;18.650;2022-10-16T03:48:32;13.50;;;6.90;;
47483;SDS011;54076;50.322;18.650;2022-10-16T03:53:33;16.30;;;7.40;;
47483;SDS011;54076;50.322;18.650;2022-10-16T03:58:34;17.40;;;7.30;;
47483;SDS011;54076;50.322;18.650;2022-10-16T04:03:35;16.00;;;7.40;;
47483;SDS011;54076;50.322;18.650;2022-10-16T04:08:35;13.90;;;7.00;;
47483;SDS011;54076;50.322;18.650;2022-10-16T04:13:37;14.70;;;7.20;;
47483;SDS011;54076;50.322;18.650;2022-10-16T04:18:38;12.10;;;6.50;;
47483;SDS011;54076;50.322;18.650;2022-10-16T04:23:39;14.60;;;6.40;;
47483;SDS011;54076;50.322;18.650;2022-10-16T04:28:40;14.90;;;7.20;;
47483;SDS011;54076;50.322;18.650;2022-10-16T04:33:43;14.70;;;7.30;;
47483;SDS011;54076;50.322;18.650;2022-10-16T04:38:44;15.00;;;7.10;;
47483;SDS011;54076;50.322;18.650;2022-10-16T04:43:45;12.50;;;7.40;;
47483;SDS011;54076;50.322;18.650;2022-10-16T04:48:46;15.80;;;7.20;;
47483;SDS011;54076;50.322;18.650;2022-10-16T04:53:47;12.90;;;7.30;;
47483;SDS011;54076;50.322;18.650;2022-10-16T04:58:48;17.00;;;7.70;;
47483;SDS011;54076;50.322;18.650;2022-10-16T05:03:49;17.40;;;8.60;;
47483;SDS011;54076;50.322;18.650;2022-10-16T05:08:50;17.40;;;8.20;;
47483;SDS011;54076;50.322;18.650;2022-10-16T05:13:51;17.70;;;8.10;;
47483;SDS011;54076;50.322;18.650;2022-10-16T05:18:52;19.20;;;9.10;;
47483;SDS011;54076;50.322;18.650;2022-10-16T05:23:53;18.00;;;8.60;;
47483;SDS011;54076;50.322;18.650;2022-10-16T05:28:55;16.90;;;8.70;;
47483;SDS011;54076;50.322;18.650;2022-10-16T05:33:59;17.00;;;8.50;;
47483;SDS011;54076;50.322;18.650;2022-10-16T05:39:01;18.40;;;8.90;;
47483;SDS011;54076;50.322;18.650;2022-10-16T05:44:05;22.00;;;9.60;;
47483;SDS011;54076;50.322;18.650;2022-10-16T05:49:07;18.00;;;9.90;;
47483;SDS011;54076;50.322;18.650;2022-10-16T05:54:08;21.90;;;10.40;;
47483;SDS011;54076;50.322;18.650;2022-10-16T05:59:09;22.70;;;10.10;;
47483;SDS011;54076;50.322;18.650;2022-10-16T06:04:10;19.10;;;9.40;;
47483;SDS011;54076;50.322;18.650;2022-10-16T06:09:11;21.30;;;9.40;;
47483;SDS011;54076;50.322;18.650;2022-10-16T06:14:12;19.20;;;9.70;;
47483;SDS011;54076;50.322;18.650;2022-10-16T06:19:13;21.40;;;9.30;;
47483;SDS011;54076;50.322;18.650;2022-10-16T06:24:14;19.50;;;9.00;;
47483;SDS011;54076;50.322;18.650;2022-10-16T06:29:15;19.00;;;9.20;;
47483;SDS011;54076;50.322;18.650;2022-10-16T06:34:16;19.90;;;9.80;;
47483;SDS011;54076;50.322;18.650;2022-10-16T06:39:17;17.70;;;9.00;;
47483;SDS011;54076;50.322;18.650;2022-10-16T06:44:18;17.40;;;9.60;;
47483;SDS011;54076;50.322;18.650;2022-10-16T06:49:19;19.60;;;8.70;;
47483;SDS011;54076;50.322;18.650;2022-10-16T06:54:23;17.60;;;8.90;;
47483;SDS011;54076;50.322;18.650;2022-10-16T06:59:23;19.00;;;8.90;;
47483;SDS011;54076;50.322;18.650;2022-10-16T07:04:24;18.60;;;9.20;;
47483;SDS011;54076;50.322;18.650;2022-10-16T07:09:25;19.10;;;9.50;;
47483;SDS011;54076;50.322;18.650;2022-10-16T07:14:26;18.70;;;9.30;;
47483;SDS011;54076;50.322;18.650;2022-10-16T07:19:28;17.60;;;8.90;;
47483;SDS011;54076;50.322;18.650;2022-10-16T07:24:29;18.40;;;9.40;;
47483;SDS011;54076;50.322;18.650;2022-10-16T07:29:30;16.60;;;8.50;;
47483;SDS011;54076;50.322;18.650;2022-10-16T07:34:31;18.50;;;9.10;;
47483;SDS011;54076;50.322;18.650;2022-10-16T07:39:32;15.90;;;8.20;;
47483;SDS011;54076;50.322;18.650;2022-10-16T07:44:33;16.30;;;7.80;;
47483;SDS011;54076;50.322;18.650;2022-10-16T07:49:34;18.70;;;7.80;;
47483;SDS011;54076;50.322;18.650;2022-10-16T07:54:34;16.60;;;8.10;;
47483;SDS011;54076;50.322;18.650;2022-10-16T07:59:35;15.10;;;8.50;;
47483;SDS011;54076;50.322;18.650;2022-10-16T08:04:36;17.10;;;8.90;;
47483;SDS011;54076;50.322;18.650;2022-10-16T08:09:37;20.10;;;8.40;;
47483;SDS011;54076;50.322;18.650;2022-10-16T08:14:38;16.00;;;9.00;;
47483;SDS011;54076;50.322;18.650;2022-10-16T08:19:39;17.10;;;9.00;;
47483;SDS011;54076;50.322;18.650;2022-10-16T08:24:40;16.80;;;8.60;;
47483;SDS011;54076;50.322;18.650;2022-10-16T08:29:41;15.70;;;8.60;;
47483;SDS011;54076;50.322;18.650;2022-10-16T08:34:42;18.70;;;8.80;;
47483;SDS011;54076;50.322;18.650;2022-10-16T08:39:43;17.20;;;8.90;;
47483;SDS011;54076;50.322;18.650;2022-10-16T08:50:14;17.10;;;8.50;;
47483;SDS011;54076;50.322;18.650;2022-10-16T08:55:37;17.20;;;9.10;;
47483;SDS011;54076;50.322;18.650;2022-10-16T09:00:45;19.30;;;8.90;;
47483;SDS011;54076;50.322;18.650;2022-10-16T09:06:07;16.20;;;8.80;;
47483;SDS011;54076;50.322;18.650;2022-10-16T09:16:39;15.20;;;8.00;;
47483;SDS011;54076;50.322;18.650;2022-10-16T09:21:47;14.40;;;7.70;;
47483;SDS011;54076;50.322;18.650;2022-10-16T09:26:49;15.60;;;7.40;;
47483;SDS011;54076;50.322;18.650;2022-10-16T09:31:52;17.50;;;7.50;;
47483;SDS011;54076;50.322;18.650;2022-10-16T09:36:55;14.10;;;7.50;;
47483;SDS011;54076;50.322;18.650;2022-10-16T09:41:59;13.90;;;7.30;;
47483;SDS011;54076;50.322;18.650;2022-10-16T09:47:23;13.00;;;7.20;;
47483;SDS011;54076;50.322;18.650;2022-10-16T09:52:26;13.80;;;7.10;;
47483;SDS011;54076;50.322;18.650;2022-10-16T09:57:27;13.10;;;7.10;;
47483;SDS011;54076;50.322;18.650;2022-10-16T10:02:34;12.30;;;7.30;;
47483;SDS011;54076;50.322;18.650;2022-10-16T10:07:39;14.20;;;7.80;;
47483;SDS011;54076;50.322;18.650;2022-10-16T10:12:44;16.30;;;7.80;;
47483;SDS011;54076;50.322;18.650;2022-10-16T10:17:56;17.70;;;7.20;;
47483;SDS011;54076;50.322;18.650;2022-10-16T10:22:58;14.10;;;7.00;;
47483;SDS011;54076;50.322;18.650;2022-10-16T10:44:33;14.00;;;7.00;;
47483;SDS011;54076;50.322;18.650;2022-10-16T11:06:17;13.50;;;6.50;;
47483;SDS011;54076;50.322;18.650;2022-10-16T11:11:42;13.50;;;6.50;;
47483;SDS011;54076;50.322;18.650;2022-10-16T11:17:17;11.20;;;6.50;;
47483;SDS011;54076;50.322;18.650;2022-10-16T11:22:36;11.30;;;6.90;;
47483;SDS011;54076;50.322;18.650;2022-10-16T11:38:17;12.20;;;6.20;;
47483;SDS011;54076;50.322;18.650;2022-10-16T11:43:24;12.60;;;7.50;;
47483;SDS011;54076;50.322;18.650;2022-10-16T11:48:51;11.30;;;6.90;;
47483;SDS011;54076;50.322;18.650;2022-10-16T11:59:42;9.80;;;5.90;;
47483;SDS011;54076;50.322;18.650;2022-10-16T12:05:14;12.80;;;6.70;;
47483;SDS011;54076;50.322;18.650;2022-10-16T12:10:35;11.30;;;6.50;;
47483;SDS011;54076;50.322;18.650;2022-10-16T12:15:37;13.40;;;6.70;;
47483;SDS011;54076;50.322;18.650;2022-10-16T12:20:38;11.70;;;6.50;;
47483;SDS011;54076;50.322;18.650;2022-10-16T12:25:56;10.00;;;6.20;;
47483;SDS011;54076;50.322;18.650;2022-10-16T12:31:07;15.50;;;6.20;;
47483;SDS011;54076;50.322;18.650;2022-10-16T12:36:14;11.50;;;6.70;;
47483;SDS011;54076;50.322;18.650;2022-10-16T12:41:35;13.00;;;6.70;;
47483;SDS011;54076;50.322;18.650;2022-10-16T12:46:40;10.30;;;6.60;;
47483;SDS011;54076;50.322;18.650;2022-10-16T12:51:42;13.80;;;6.70;;
47483;SDS011;54076;50.322;18.650;2022-10-16T13:18:56;12.20;;;6.60;;
47483;SDS011;54076;50.322;18.650;2022-10-16T13:29:38;14.90;;;7.30;;
47483;SDS011;54076;50.322;18.650;2022-10-16T13:34:47;13.60;;;6.80;;
47483;SDS011;54076;50.322;18.650;2022-10-16T13:39:49;13.30;;;7.10;;
47483;SDS011;54076;50.322;18.650;2022-10-16T13:44:53;13.30;;;7.30;;
47483;SDS011;54076;50.322;18.650;2022-10-16T13:55:14;13.30;;;7.20;;
47483;SDS011;54076;50.322;18.650;2022-10-16T14:00:24;14.70;;;7.20;;
47483;SDS011;54076;50.322;18.650;2022-10-16T14:05:30;16.40;;;7.80;;
47483;SDS011;54076;50.322;18.650;2022-10-16T14:10:32;16.30;;;7.90;;
47483;SDS011;54076;50.322;18.650;2022-10-16T14:15:35;15.90;;;7.30;;
47483;SDS011;54076;50.322;18.650;2022-10-16T14:20:37;12.40;;;7.10;;
47483;SDS011;54076;50.322;18.650;2022-10-16T14:25:38;13.70;;;7.60;;
47483;SDS011;54076;50.322;18.650;2022-10-16T14:36:13;14.80;;;7.50;;
47483;SDS011;54076;50.322;18.650;2022-10-16T14:41:20;14.90;;;7.60;;
47483;SDS011;54076;50.322;18.650;2022-10-16T14:46:35;13.50;;;7.60;;
47483;SDS011;54076;50.322;18.650;2022-10-16T14:51:39;15.60;;;7.90;;
47483;SDS011;54076;50.322;18.650;2022-10-16T15:01:49;14.90;;;7.80;;
47483;SDS011;54076;50.322;18.650;2022-10-16T15:06:50;15.70;;;8.10;;
47483;SDS011;54076;50.322;18.650;2022-10-16T15:11:51;16.80;;;7.80;;
47483;SDS011;54076;50.322;18.650;2022-10-16T15:16:52;13.30;;;7.30;;
47483;SDS011;54076;50.322;18.650;2022-10-16T15:21:52;12.70;;;7.50;;
47483;SDS011;54076;50.322;18.650;2022-10-16T15:26:53;14.60;;;7.80;;
47483;SDS011;54076;50.322;18.650;2022-10-16T15:31:54;14.00;;;7.80;;
47483;SDS011;54076;50.322;18.650;2022-10-16T15:36:55;14.00;;;7.90;;
47483;SDS011;54076;50.322;18.650;2022-10-16T15:41:58;14.20;;;8.00;;
47483;SDS011;54076;50.322;18.650;2022-10-16T15:46:59;15.80;;;8.00;;
47483;SDS011;54076;50.322;18.650;2022-10-16T15:52:01;14.50;;;8.20;;
47483;SDS011;54076;50.322;18.650;2022-10-16T15:57:03;20.30;;;9.80;;
47483;SDS011;54076;50.322;18.650;2022-10-16T16:02:05;18.10;;;8.80;;
47483;SDS011;54076;50.322;18.650;2022-10-16T16:07:06;16.70;;;10.10;;
47483;SDS011;54076;50.322;18.650;2022-10-16T16:12:10;21.20;;;10.40;;
47483;SDS011;54076;50.322;18.650;2022-10-16T16:17:11;18.70;;;10.20;;
47483;SDS011;54076;50.322;18.650;2022-10-16T16:22:12;23.20;;;10.60;;
47483;SDS011;54076;50.322;18.650;2022-10-16T16:27:13;17.40;;;10.20;;
47483;SDS011;54076;50.322;18.650;2022-10-16T16:32:14;19.40;;;10.20;;
47483;SDS011;54076;50.322;18.650;2022-10-16T16:37:15;25.00;;;10.40;;
47483;SDS011;54076;50.322;18.650;2022-10-16T16:42:16;18.60;;;10.00;;
47483;SDS011;54076;50.322;18.650;2022-10-16T16:47:17;19.50;;;10.20;;
47483;SDS011;54076;50.322;18.650;2022-10-16T16:52:18;20.60;;;10.90;;
47483;SDS011;54076;50.322;18.650;2022-10-16T16:57:19;21.30;;;10.60;;
47483;SDS011;54076;50.322;18.650;2022-10-16T17:02:21;21.40;;;11.20;;
47483;SDS011;54076;50.322;18.650;2022-10-16T17:07:22;22.30;;;10.30;;
47483;SDS011;54076;50.322;18.650;2022-10-16T17:12:24;21.90;;;10.40;;
47483;SDS011;54076;50.322;18.650;2022-10-16T17:17:25;23.00;;;10.90;;
47483;SDS011;54076;50.322;18.650;2022-10-16T17:22:26;21.50;;;10.70;;
47483;SDS011;54076;50.322;18.650;2022-10-16T17:27:27;17.40;;;10.20;;
47483;SDS011;54076;50.322;18.650;2022-10-16T17:32:27;21.00;;;10.80;;
47483;SDS011;54076;50.322;18.650;2022-10-16T17:37:28;19.00;;;10.40;;
47483;SDS011;54076;50.322;18.650;2022-10-16T17:42:29;20.20;;;10.60;;
47483;SDS011;54076;50.322;18.650;2022-10-16T17:47:30;18.90;;;10.40;;
47483;SDS011;54076;50.322;18.650;2022-10-16T17:52:31;18.70;;;10.00;;
47483;SDS011;54076;50.322;18.650;2022-10-16T17:57:32;23.60;;;10.30;;
47483;SDS011;54076;50.322;18.650;2022-10-16T18:02:33;18.20;;;9.80;;
47483;SDS011;54076;50.322;18.650;2022-10-16T18:07:34;20.00;;;10.90;;
47483;SDS011;54076;50.322;18.650;2022-10-16T18:12:35;21.30;;;11.50;;
47483;SDS011;54076;50.322;18.650;2022-10-16T18:17:36;24.40;;;12.10;;
47483;SDS011;54076;50.322;18.650;2022-10-16T18:22:37;23.40;;;11.60;;
47483;SDS011;54076;50.322;18.650;2022-10-16T18:27:39;23.50;;;12.40;;
47483;SDS011;54076;50.322;18.650;2022-10-16T18:32:40;22.90;;;12.60;;
47483;SDS011;54076;50.322;18.650;2022-10-16T18:37:41;24.10;;;12.60;;
47483;SDS011;54076;50.322;18.650;2022-10-16T18:42:41;26.00;;;12.70;;
47483;SDS011;54076;50.322;18.650;2022-10-16T18:47:43;24.90;;;12.60;;
47483;SDS011;54076;50.322;18.650;2022-10-16T18:52:46;26.40;;;12.50;;
47483;SDS011;54076;50.322;18.650;2022-10-16T18:57:48;24.00;;;12.70;;
47483;SDS011;54076;50.322;18.650;2022-10-16T19:02:49;23.90;;;11.60;;
47483;SDS011;54076;50.322;18.650;2022-10-16T19:07:50;25.10;;;11.80;;
47483;SDS011;54076;50.322;18.650;2022-10-16T19:12:52;23.40;;;12.30;;
47483;SDS011;54076;50.322;18.650;2022-10-16T19:17:53;22.40;;;12.00;;
47483;SDS011;54076;50.322;18.650;2022-10-16T19:22:54;22.50;;;12.50;;
47483;SDS011;54076;50.322;18.650;2022-10-16T19:27:58;26.70;;;12.60;;
47483;SDS011;54076;50.322;18.650;2022-10-16T19:33:01;21.90;;;12.10;;
47483;SDS011;54076;50.322;18.650;2022-10-16T19:38:02;18.50;;;10.50;;
47483;SDS011;54076;50.322;18.650;2022-10-16T19:43:03;22.40;;;11.10;;
47483;SDS011;54076;50.322;18.650;2022-10-16T19:48:04;23.80;;;11.60;;
47483;SDS011;54076;50.322;18.650;2022-10-16T19:53:05;22.90;;;11.00;;
47483;SDS011;54076;50.322;18.650;2022-10-16T19:58:05;19.50;;;10.50;;
47483;SDS011;54076;50.322;18.650;2022-10-16T20:03:07;20.30;;;10.80;;
47483;SDS011;54076;50.322;18.650;2022-10-16T20:08:08;27.40;;;12.10;;
47483;SDS011;54076;50.322;18.650;2022-10-16T20:13:09;21.30;;;10.70;;
47483;SDS011;54076;50.322;18.650;2022-10-16T20:18:10;17.80;;;9.70;;
47483;SDS011;54076;50.322;18.650;2022-10-16T20:23:11;20.00;;;10.50;;
47483;SDS011;54076;50.322;18.650;2022-10-16T20:28:15;18.00;;;10.10;;
47483;SDS011;54076;50.322;18.650;2022-10-16T20:33:18;20.70;;;9.80;;
47483;SDS011;54076;50.322;18.650;2022-10-16T20:38:18;19.50;;;10.80;;
47483;SDS011;54076;50.322;18.650;2022-10-16T20:43:19;23.20;;;10.90;;
47483;SDS011;54076;50.322;18.650;2022-10-16T20:48:20;20.10;;;10.80;;
47483;SDS011;54076;50.322;18.650;2022-10-16T20:53:21;19.50;;;10.20;;
47483;SDS011;54076;50.322;18.650;2022-10-16T20:58:22;19.30;;;9.10;;
47483;SDS011;54076;50.322;18.650;2022-10-16T21:03:23;20.40;;;9.90;;
47483;SDS011;54076;50.322;18.650;2022-10-16T21:08:25;17.90;;;9.70;;
47483;SDS011;54076;50.322;18.650;2022-10-16T21:13:26;19.80;;;9.20;;
47483;SDS011;54076;50.322;18.650;2022-10-16T21:18:27;17.40;;;8.80;;
47483;SDS011;54076;50.322;18.650;2022-10-16T21:23:28;18.90;;;10.00;;
47483;SDS011;54076;50.322;18.650;2022-10-16T21:28:31;17.20;;;9.80;;
47483;SDS011;54076;50.322;18.650;2022-10-16T21:33:32;18.70;;;9.90;;
47483;SDS011;54076;50.322;18.650;2022-10-16T21:38:33;18.60;;;9.60;;
47483;SDS011;54076;50.322;18.650;2022-10-16T21:43:35;21.60;;;10.40;;
47483;SDS011;54076;50.322;18.650;2022-10-16T21:48:36;20.90;;;10.40;;
47483;SDS011;54076;50.322;18.650;2022-10-16T21:53:37;20.30;;;10.90;;
47483;SDS011;54076;50.322;18.650;2022-10-16T21:58:39;22.60;;;11.30;;
47483;SDS011;54076;50.322;18.650;2022-10-16T22:03:40;19.20;;;11.10;;
47483;SDS011;54076;50.322;18.650;2022-10-16T22:08:42;23.10;;;10.80;;
47483;SDS011;54076;50.322;18.650;2022-10-16T22:13:46;23.00;;;11.70;;
47483;SDS011;54076;50.322;18.650;2022-10-16T22:18:47;22.60;;;11.90;;
47483;SDS011;54076;50.322;18.650;2022-10-16T22:23:50;21.00;;;11.40;;
47483;SDS011;54076;50.322;18.650;2022-10-16T22:28:51;30.20;;;12.30;;
47483;SDS011;54076;50.322;18.650;2022-10-16T22:33:59;24.30;;;11.50;;
47483;SDS011;54076;50.322;18.650;2022-10-16T22:39:02;24.50;;;12.10;;
47483;SDS011;54076;50.322;18.650;2022-10-16T22:44:03;21.40;;;11.70;;
47483;SDS011;54076;50.322;18.650;2022-10-16T22:49:04;22.60;;;11.10;;
47483;SDS011;54076;50.322;18.650;2022-10-16T22:54:05;21.50;;;11.20;;
47483;SDS011;54076;50.322;18.650;2022-10-16T22:59:06;21.90;;;11.40;;
47483;SDS011;54076;50.322;18.650;2022-10-16T23:04:09;24.30;;;11.80;;
47483;SDS011;54076;50.322;18.650;2022-10-16T23:09:10;24.70;;;12.80;;
47483;SDS011;54076;50.322;18.650;2022-10-16T23:14:11;25.80;;;13.70;;
47483;SDS011;54076;50.322;18.650;2022-10-16T23:19:12;24.90;;;12.70;;
47483;SDS011;54076;50.322;18.650;2022-10-16T23:24:12;27.60;;;13.40;;
47483;SDS011;54076;50.322;18.650;2022-10-16T23:29:14;26.90;;;13.40;;
47483;SDS011;54076;50.322;18.650;2022-10-16T23:34:15;30.10;;;14.00;;
47483;SDS011;54076;50.322;18.650;2022-10-16T23:39:16;29.70;;;14.10;;
47483;SDS011;54076;50.322;18.650;2022-10-16T23:44:17;30.50;;;12.70;;
47483;SDS011;54076;50.322;18.650;2022-10-16T23:49:18;32.10;;;15.50;;
47483;SDS011;54076;50.322;18.650;2022-10-16T23:54:19;29.90;;;14.90;;
47483;SDS011;54076;50.322;18.650;2022-10-16T23:59:20;29.10;;;15.00;;
